Terminal Aerodrome Forecast
Issued by NWS

Home | Current Version | Previous Version | Text Only | Print | Product List | Glossary On
Versions: 1 2 3 4 5 6 7 8 9 10 11 12
000
FTUS46 KSEW 012300
TAFBLI
TAF
KBLI 012320Z 0200/0224 18005KT P6SM OVC100
     FM020300 VRB03KT P6SM -RA BKN030 OVC050
     FM020600 VRB03KT P6SM -RA BKN020 OVC040
     FM021000 36004KT P6SM SCT020 BKN070
     FM021400 36005KT P6SM SCT070=

USA.gov is the U.S. government's official web portal to all federal, state and local government web resources and services.